Cosco Aden — VRKF9 — position and weather

sailwx.info

Track history (hours):
 
Tides and Currents Weather Stations Pressure Air Temp Water Temp Dewpoint Dewpoint Depression Visibility Wind Speed Wind Dir Waves Ship Positions

Cosco Aden

Last reported at 2014-Nov-22 01:33 UTC. Time now 2014-Nov-26 07:42 UTC.
Position N 22°23' E 113°54'.

Length 261 m; draft 12.6 m.

Type: Ship (hazmat cat A). MMSI: 477765900.

Date/timePositionNaut miles runAvg speedWind from/ knotsBaromVisibWave heightAir tempDewpointWater temp
2014-Nov-22 01:33N 22°23' E 113°54'4 2.9
2014-Nov-22 00:12N 22°27' E 113°53'0 0.0
2014-Nov-21 23:30N 22°27' E 113°53'0 0.0
2014-Nov-21 22:24N 22°27' E 113°53'0 0.0
2014-Nov-21 21:30N 22°27' E 113°53'0 0.0
2014-Nov-21 20:30N 22°27' E 113°53'0 0.0
2014-Nov-21 19:24N 22°27' E 113°53'0 0.0
2014-Nov-21 18:30N 22°27' E 113°53'0 0.0
2014-Nov-21 17:30N 22°27' E 113°53'0 0.0
2014-Nov-21 16:30N 22°27' E 113°53'3 3.4
2014-Nov-21 15:33N 22°24' E 113°54'12 9.1
2014-Nov-21 14:15N 22°19' E 114°05'10 9.7
2014-Nov-21 13:15N 22°11' E 114°12'1110.0
2014-Nov-21 12:10N 22°02' E 114°05'914.0
2014-Nov-21 11:32N 21°60' E 113°56'1110.8
2014-Nov-21 10:33N 22°09' E 113°50'1514.7
2014-Nov-21 09:34N 22°23' E 113°46'1514.5
2014-Nov-21 08:34N 22°37' E 113°42'2 0.3
2014-Nov-21 02:26N 22°39' E 113°41'1111.0
2014-Nov-21 01:28N 22°29' E 113°45'1213.5
2014-Nov-21 00:33N 22°17' E 113°48'1313.1
2014-Nov-20 23:33N 22°04' E 113°51'3 3.4
2014-Nov-20 22:32N 22°01' E 113°53'8 7.2
2014-Nov-20 21:28N 21°58' E 114°00'24115.1
2014-Nov-20 05:30N 23°35' E 117°59'1616.6
2014-Nov-20 04:34N 23°45' E 118°12'2018.7
2014-Nov-20 03:29N 23°58' E 118°29'4720.2
2014-Nov-20 01:08N 24°29' E 119°08'1119.6
2014-Nov-20 00:33N 24°37' E 119°17'4815.2
2014-Nov-19 21:25N 25°11' E 119°54'1315.0
2014-Nov-19 20:32N 25°21' E 120°03'27815.5
2014-Nov-19 02:33N 29°28' E 122°29'1615.5
2014-Nov-19 01:33N 29°42' E 122°23'1212.1
2014-Nov-19 00:33N 29°50' E 122°12'9 8.6
2014-Nov-18 23:33N 29°54' E 122°03'0 0.1
2014-Nov-18 20:22N 29°53' E 122°03'0 0.0
2014-Nov-18 19:28N 29°53' E 122°03'0 0.0
2014-Nov-18 18:10N 29°53' E 122°03'0 0.0
2014-Nov-18 17:22N 29°53' E 122°03'0 0.0
2014-Nov-18 16:16N 29°53' E 122°03'0 0.0
2014-Nov-18 15:22N 29°53' E 122°03'0 0.0
2014-Nov-18 14:10N 29°53' E 122°03'0 0.0
2014-Nov-18 12:22N 29°53' E 122°03'2 2.1
2014-Nov-18 11:34N 29°55' E 122°04'9 8.9
2014-Nov-18 10:33N 29°50' E 122°13'9 8.8
2014-Nov-18 09:33N 29°44' E 122°21'10 9.8
2014-Nov-18 08:33N 29°45' E 122°32'1515.1
2014-Nov-18 07:33N 29°55' E 122°44'3313.6
2014-Nov-18 05:08N 30°25' E 122°60'35011.8
2014-Nov-16 23:26N 35°56' E 120°45'1415.7
2014-Nov-16 22:33N 35°59' E 120°28'1312.5
2014-Nov-16 21:33N 36°00' E 120°13'2 0.1
2014-Nov-16 05:33N 36°02' E 120°14'1110.9
2014-Nov-16 04:33N 36°00' E 120°27'1414.5
2014-Nov-16 03:33N 35°57' E 120°45'9014.7
2014-Nov-15 21:27N 36°40' E 122°23'1415.6
2014-Nov-15 20:33N 36°49' E 122°37'1313.5
2014-Nov-15 19:33N 36°60' E 122°46'1515.3
2014-Nov-15 18:33N 37°15' E 122°46'1414.0
2014-Nov-15 17:33N 37°29' E 122°44'1413.9
2014-Nov-15 16:33N 37°40' E 122°33'22714.9
2014-Nov-15 01:20N 38°56' E 118°01'1113.7
2014-Nov-15 00:34N 38°58' E 117°48'1 0.9
2014-Nov-14 23:12N 38°59' E 117°46'0 0.0
2014-Nov-14 22:30N 38°59' E 117°46'0 0.0
2014-Nov-14 21:30N 38°59' E 117°46'0 0.0
2014-Nov-14 20:30N 38°59' E 117°46'0 0.0
2014-Nov-14 19:30N 38°59' E 117°46'0 0.0
2014-Nov-14 18:30N 38°59' E 117°46'0 0.0
2014-Nov-14 17:18N 38°59' E 117°46'0 0.0
2014-Nov-14 16:30N 38°59' E 117°46'0 0.0
2014-Nov-14 15:30N 38°59' E 117°46'0 0.0
2014-Nov-14 14:30N 38°59' E 117°46'0 0.0
2014-Nov-14 12:30N 38°59' E 117°46'0 0.0
2014-Nov-14 11:30N 38°59' E 117°46'0 0.0
2014-Nov-14 10:30N 38°59' E 117°46'0 0.0
2014-Nov-14 09:30N 38°59' E 117°46'0 0.0
2014-Nov-14 08:30N 38°59' E 117°46'0 0.0
2014-Nov-14 07:30N 38°59' E 117°46'1 1.3
2014-Nov-14 06:33N 38°58' E 117°48'1212.2
2014-Nov-14 05:33N 38°56' E 118°03'14913.1
2014-Nov-13 18:08N 38°31' E 121°12'915.1
2014-Nov-13 17:33N 38°31' E 121°23'1414.2
2014-Nov-13 16:33N 38°32' E 121°42'1414.2
2014-Nov-13 15:33N 38°44' E 121°51'11 0.9
2014-Nov-13 03:32N 38°54' E 121°57'1414.3
2014-Nov-13 02:32N 38°41' E 122°05'5917.6
2014-Nov-12 23:11N 37°48' E 122°38'1219.5
2014-Nov-12 22:33N 37°37' E 122°45'1918.5
2014-Nov-12 21:33N 37°20' E 122°54'1918.5
2014-Nov-12 20:33N 37°01' E 122°53'1818.6
2014-Nov-12 19:33N 36°43' E 122°54'  
Track history (hours):
 
Tides and Currents Weather Stations Pressure Air Temp Water Temp Dewpoint Dewpoint Depression Visibility Wind Speed Wind Dir Waves Ship Positions

Cosco Aden

Last reported at 2014-Nov-22 01:33 UTC. Time now 2014-Nov-26 07:42 UTC.
Position N 22°23' E 113°54'.

Length 261 m; draft 12.6 m.

Type: Ship (hazmat cat A). MMSI: 477765900.

Date/timePositionNaut miles runAvg speedWind from/ knotsBaromVisibWave heightAir tempDewpointWater temp
2014-Nov-22 01:33N 22°23' E 113°54'4 2.9
2014-Nov-22 00:12N 22°27' E 113°53'0 0.0
2014-Nov-21 23:30N 22°27' E 113°53'0 0.0
2014-Nov-21 22:24N 22°27' E 113°53'0 0.0
2014-Nov-21 21:30N 22°27' E 113°53'0 0.0
2014-Nov-21 20:30N 22°27' E 113°53'0 0.0
2014-Nov-21 19:24N 22°27' E 113°53'0 0.0
2014-Nov-21 18:30N 22°27' E 113°53'0 0.0
2014-Nov-21 17:30N 22°27' E 113°53'0 0.0
2014-Nov-21 16:30N 22°27' E 113°53'3 3.4
2014-Nov-21 15:33N 22°24' E 113°54'12 9.1
2014-Nov-21 14:15N 22°19' E 114°05'10 9.7
2014-Nov-21 13:15N 22°11' E 114°12'1110.0
2014-Nov-21 12:10N 22°02' E 114°05'914.0
2014-Nov-21 11:32N 21°60' E 113°56'1110.8
2014-Nov-21 10:33N 22°09' E 113°50'1514.7
2014-Nov-21 09:34N 22°23' E 113°46'1514.5
2014-Nov-21 08:34N 22°37' E 113°42'2 0.3
2014-Nov-21 02:26N 22°39' E 113°41'1111.0
2014-Nov-21 01:28N 22°29' E 113°45'1213.5
2014-Nov-21 00:33N 22°17' E 113°48'1313.1
2014-Nov-20 23:33N 22°04' E 113°51'3 3.4
2014-Nov-20 22:32N 22°01' E 113°53'8 7.2
2014-Nov-20 21:28N 21°58' E 114°00'24115.1
2014-Nov-20 05:30N 23°35' E 117°59'1616.6
2014-Nov-20 04:34N 23°45' E 118°12'2018.7
2014-Nov-20 03:29N 23°58' E 118°29'4720.2
2014-Nov-20 01:08N 24°29' E 119°08'1119.6
2014-Nov-20 00:33N 24°37' E 119°17'4815.2
2014-Nov-19 21:25N 25°11' E 119°54'1315.0
2014-Nov-19 20:32N 25°21' E 120°03'27815.5
2014-Nov-19 02:33N 29°28' E 122°29'1615.5
2014-Nov-19 01:33N 29°42' E 122°23'1212.1
2014-Nov-19 00:33N 29°50' E 122°12'9 8.6
2014-Nov-18 23:33N 29°54' E 122°03'0 0.1
2014-Nov-18 20:22N 29°53' E 122°03'0 0.0
2014-Nov-18 19:28N 29°53' E 122°03'0 0.0
2014-Nov-18 18:10N 29°53' E 122°03'0 0.0
2014-Nov-18 17:22N 29°53' E 122°03'0 0.0
2014-Nov-18 16:16N 29°53' E 122°03'0 0.0
2014-Nov-18 15:22N 29°53' E 122°03'0 0.0
2014-Nov-18 14:10N 29°53' E 122°03'0 0.0
2014-Nov-18 12:22N 29°53' E 122°03'2 2.1
2014-Nov-18 11:34N 29°55' E 122°04'9 8.9
2014-Nov-18 10:33N 29°50' E 122°13'9 8.8
2014-Nov-18 09:33N 29°44' E 122°21'10 9.8
2014-Nov-18 08:33N 29°45' E 122°32'1515.1
2014-Nov-18 07:33N 29°55' E 122°44'3313.6
2014-Nov-18 05:08N 30°25' E 122°60'35011.8
2014-Nov-16 23:26N 35°56' E 120°45'1415.7
2014-Nov-16 22:33N 35°59' E 120°28'1312.5
2014-Nov-16 21:33N 36°00' E 120°13'2 0.1
2014-Nov-16 05:33N 36°02' E 120°14'1110.9
2014-Nov-16 04:33N 36°00' E 120°27'1414.5
2014-Nov-16 03:33N 35°57' E 120°45'9014.7
2014-Nov-15 21:27N 36°40' E 122°23'1415.6
2014-Nov-15 20:33N 36°49' E 122°37'1313.5
2014-Nov-15 19:33N 36°60' E 122°46'1515.3
2014-Nov-15 18:33N 37°15' E 122°46'1414.0
2014-Nov-15 17:33N 37°29' E 122°44'1413.9
2014-Nov-15 16:33N 37°40' E 122°33'22714.9
2014-Nov-15 01:20N 38°56' E 118°01'1113.7
2014-Nov-15 00:34N 38°58' E 117°48'1 0.9
2014-Nov-14 23:12N 38°59' E 117°46'0 0.0
2014-Nov-14 22:30N 38°59' E 117°46'0 0.0
2014-Nov-14 21:30N 38°59' E 117°46'0 0.0
2014-Nov-14 20:30N 38°59' E 117°46'0 0.0
2014-Nov-14 19:30N 38°59' E 117°46'0 0.0
2014-Nov-14 18:30N 38°59' E 117°46'0 0.0
2014-Nov-14 17:18N 38°59' E 117°46'0 0.0
2014-Nov-14 16:30N 38°59' E 117°46'0 0.0
2014-Nov-14 15:30N 38°59' E 117°46'0 0.0
2014-Nov-14 14:30N 38°59' E 117°46'0 0.0
2014-Nov-14 12:30N 38°59' E 117°46'0 0.0
2014-Nov-14 11:30N 38°59' E 117°46'0 0.0
2014-Nov-14 10:30N 38°59' E 117°46'0 0.0
2014-Nov-14 09:30N 38°59' E 117°46'0 0.0
2014-Nov-14 08:30N 38°59' E 117°46'0 0.0
2014-Nov-14 07:30N 38°59' E 117°46'1 1.3
2014-Nov-14 06:33N 38°58' E 117°48'1212.2
2014-Nov-14 05:33N 38°56' E 118°03'14913.1
2014-Nov-13 18:08N 38°31' E 121°12'915.1
2014-Nov-13 17:33N 38°31' E 121°23'1414.2
2014-Nov-13 16:33N 38°32' E 121°42'1414.2
2014-Nov-13 15:33N 38°44' E 121°51'11 0.9
2014-Nov-13 03:32N 38°54' E 121°57'1414.3
2014-Nov-13 02:32N 38°41' E 122°05'5917.6
2014-Nov-12 23:11N 37°48' E 122°38'1219.5
2014-Nov-12 22:33N 37°37' E 122°45'1918.5
2014-Nov-12 21:33N 37°20' E 122°54'1918.5
2014-Nov-12 20:33N 37°01' E 122°53'1818.6
2014-Nov-12 19:33N 36°43' E 122°54'  

Dump ship's entire track history